Accueil
METAR-TAF:

METAR-TAF

Aéroports :

Aéroport d'Eindhoven

Eindhoven, Pays-Bas

latitude: 51-27N, longitude: 005-25E, altitude: 23 m

Observation

Le bulletin a été fait il y a 32 minutes, à 04:55 UTC
Vent 4 kt de nord/nord-est, variant entre nord et est
Température 8°C
Humidité 87%
Pression 1018 hPa
Visibilité 10 km ou plus
Ciel couvert à une hauteur de 28000 ft

METAR: EHEH 200455Z AUTO 03004KT 360V080 9999 OVC280 08/06 Q1018 BLU NOSIG

Heure: 07:27 (05:27 UTC)

Prévision

Le bulletin a été fait il y a 5 heures et 53 minutes, à 23:34 UTC
Prévision valable du 20 à 00 UTC au 21 à 06 UTC
Vent 6 kt de est/nord-est
Visibilité 10 km ou plus
Nuages épars à une hauteur de 4000 ft
Nuages fragmentés à une hauteur de 6000 ft

TAF: EHEH 192334Z 2000/2106 07006KT 9999 SCT040 BKN060

Observations et prévisions météorologiques de plus de 4000 aéroports (messages METAR et TAF).

Les stations disponibles sont représentées par des disques jaunes et rouges sur la carte.

Passer la souris dessus pour voir le nom de la station.

Cliquer dessus pour voir les observations et prévisions météorologiques.

Pour changer de carte: cliquez sur les boutons verts avec une croix noire pour zoomer, sur le bouton vert avec un tiret pour effectuer un zoom arrière, ou sur les flèches vertes pour les cartes adjacentes.


METAR-TAF: